Etusivu
METAR-TAF:

METAR-TAF

Lentoasemat :

Willmar Municipal Airport (John L. Rice Field)

Willmar, Minnesota, Yhdysvallat

Leveyspiiri: 45-07N, Pituuspiiri: 095-05W, korkeus merenpinnasta: 344 m

Tämänhetkinen sää

Tämä raportti tehtiin 21 minuuttia sitten, kello 09.55 UTC
Tuuli 8 kn luoteesta
Lämpötila 3°C
Kosteus 87%
Ilmanpaine 1019 hPa
Näkyvyys: 16.1 km
selkeää

METAR: KBDH 260955Z AUTO 31008KT 10SM CLR 03/01 A3009 RMK AO2

Aika: 05:16 (10:16 UTC)


TAF: puuttuu

Säähavainnot ja -ennusteet yli 4000 lentoasemalta (METAR- ja TAF-raportit).

Käytössä olevat sääasemat on merkitty karttaan keltaisilla ja punaisilla pisteillä.

Aseta hiiri pisteen päälle nähdäksesi sääaseman nimen.

Klikkaa sitten nähdäksesi säähavainnot ja -ennusteet.

Kartan vaihtaminen: klikkaa mustalla rastilla varustettuja vihreitä pisteitä, niin voit zoomata sisään; viivalla varustettua vihreää pistettä, niin voit zoomata ulos tai vihreitä nuolia, niin pääset viereisille kartoille.


METAR-TAF: